sensor_id;sensor_type;location;lat;lon;timestamp;temperature;humidity
26414;DHT22;14108;53.668;10.288;2022-12-29T00:01:24;10.30;84.40
26414;DHT22;14108;53.668;10.288;2022-12-29T00:03:51;10.40;84.30
26414;DHT22;14108;53.668;10.288;2022-12-29T00:06:18;10.40;84.40
26414;DHT22;14108;53.668;10.288;2022-12-29T00:08:45;10.40;84.60
26414;DHT22;14108;53.668;10.288;2022-12-29T00:11:15;10.30;84.60
26414;DHT22;14108;53.668;10.288;2022-12-29T00:13:42;10.40;84.80
26414;DHT22;14108;53.668;10.288;2022-12-29T00:16:28;10.40;84.80
26414;DHT22;14108;53.668;10.288;2022-12-29T00:18:56;10.40;84.60
26414;DHT22;14108;53.668;10.288;2022-12-29T00:21:24;10.40;84.80
26414;DHT22;14108;53.668;10.288;2022-12-29T00:24:13;10.40;84.90
26414;DHT22;14108;53.668;10.288;2022-12-29T00:27:12;10.40;84.80
26414;DHT22;14108;53.668;10.288;2022-12-29T00:29:57;10.50;84.80
26414;DHT22;14108;53.668;10.288;2022-12-29T00:32:43;10.50;84.70
26414;DHT22;14108;53.668;10.288;2022-12-29T00:35:31;10.50;85.20
26414;DHT22;14108;53.668;10.288;2022-12-29T00:38:01;10.50;84.90
26414;DHT22;14108;53.668;10.288;2022-12-29T00:40:47;10.50;85.00
26414;DHT22;14108;53.668;10.288;2022-12-29T00:43:32;10.50;84.20
26414;DHT22;14108;53.668;10.288;2022-12-29T00:46:18;10.50;85.00
26414;DHT22;14108;53.668;10.288;2022-12-29T00:48:45;10.50;85.10
26414;DHT22;14108;53.668;10.288;2022-12-29T00:51:30;10.50;85.20
26414;DHT22;14108;53.668;10.288;2022-12-29T00:53:57;10.50;85.10
26414;DHT22;14108;53.668;10.288;2022-12-29T00:56:24;10.60;85.20
26414;DHT22;14108;53.668;10.288;2022-12-29T00:58:52;10.60;85.20
26414;DHT22;14108;53.668;10.288;2022-12-29T01:01:19;10.60;85.20
26414;DHT22;14108;53.668;10.288;2022-12-29T01:03:46;10.60;85.20
26414;DHT22;14108;53.668;10.288;2022-12-29T01:06:13;10.70;85.20
26414;DHT22;14108;53.668;10.288;2022-12-29T01:08:41;10.70;85.00
26414;DHT22;14108;53.668;10.288;2022-12-29T01:11:10;10.70;84.90
26414;DHT22;14108;53.668;10.288;2022-12-29T01:13:38;10.70;85.00
26414;DHT22;14108;53.668;10.288;2022-12-29T01:16:08;10.80;85.00
26414;DHT22;14108;53.668;10.288;2022-12-29T01:18:35;10.80;85.00
26414;DHT22;14108;53.668;10.288;2022-12-29T01:21:04;10.80;85.50
26414;DHT22;14108;53.668;10.288;2022-12-29T01:23:33;10.80;84.80
26414;DHT22;14108;53.668;10.288;2022-12-29T01:26:10;10.90;84.80
26414;DHT22;14108;53.668;10.288;2022-12-29T01:28:37;10.90;84.80
26414;DHT22;14108;53.668;10.288;2022-12-29T01:31:05;10.90;84.90
26414;DHT22;14108;53.668;10.288;2022-12-29T01:33:32;10.90;84.80
26414;DHT22;14108;53.668;10.288;2022-12-29T01:36:01;10.90;84.60
26414;DHT22;14108;53.668;10.288;2022-12-29T01:38:28;10.90;84.60
26414;DHT22;14108;53.668;10.288;2022-12-29T01:43:41;11.00;84.60
26414;DHT22;14108;53.668;10.288;2022-12-29T01:46:18;10.90;86.70
26414;DHT22;14108;53.668;10.288;2022-12-29T01:48:47;10.90;85.90
26414;DHT22;14108;53.668;10.288;2022-12-29T01:51:16;11.00;85.10
26414;DHT22;14108;53.668;10.288;2022-12-29T01:53:44;11.10;84.60
26414;DHT22;14108;53.668;10.288;2022-12-29T01:56:14;11.10;84.50
26414;DHT22;14108;53.668;10.288;2022-12-29T01:58:46;11.10;84.30
26414;DHT22;14108;53.668;10.288;2022-12-29T02:01:15;11.20;84.20
26414;DHT22;14108;53.668;10.288;2022-12-29T02:03:43;11.20;84.20
26414;DHT22;14108;53.668;10.288;2022-12-29T02:06:14;11.20;84.20
26414;DHT22;14108;53.668;10.288;2022-12-29T02:08:43;11.20;84.20
26414;DHT22;14108;53.668;10.288;2022-12-29T02:11:13;11.30;84.10
26414;DHT22;14108;53.668;10.288;2022-12-29T02:13:40;11.30;83.60
26414;DHT22;14108;53.668;10.288;2022-12-29T02:16:18;11.30;84.40
26414;DHT22;14108;53.668;10.288;2022-12-29T02:18:54;11.30;83.80
26414;DHT22;14108;53.668;10.288;2022-12-29T02:21:45;11.30;83.90
26414;DHT22;14108;53.668;10.288;2022-12-29T02:27:40;11.30;83.90
26414;DHT22;14108;53.668;10.288;2022-12-29T02:33:21;11.30;83.90
26414;DHT22;14108;53.668;10.288;2022-12-29T02:35:56;11.30;84.00
26414;DHT22;14108;53.668;10.288;2022-12-29T02:38:34;11.20;84.20
26414;DHT22;14108;53.668;10.288;2022-12-29T02:41:08;11.30;84.40
26414;DHT22;14108;53.668;10.288;2022-12-29T02:43:41;11.20;84.30
26414;DHT22;14108;53.668;10.288;2022-12-29T02:46:16;11.20;84.30
26414;DHT22;14108;53.668;10.288;2022-12-29T02:48:47;11.30;84.50
26414;DHT22;14108;53.668;10.288;2022-12-29T02:51:21;11.20;84.30
26414;DHT22;14108;53.668;10.288;2022-12-29T02:53:51;11.20;84.40
26414;DHT22;14108;53.668;10.288;2022-12-29T02:56:37;11.30;84.20
26414;DHT22;14108;53.668;10.288;2022-12-29T02:59:04;11.30;84.30
26414;DHT22;14108;53.668;10.288;2022-12-29T03:01:40;11.30;84.50
26414;DHT22;14108;53.668;10.288;2022-12-29T03:04:53;11.30;84.40
26414;DHT22;14108;53.668;10.288;2022-12-29T03:07:26;11.30;84.20
26414;DHT22;14108;53.668;10.288;2022-12-29T03:10:05;11.30;84.20
26414;DHT22;14108;53.668;10.288;2022-12-29T03:12:41;11.30;85.00
26414;DHT22;14108;53.668;10.288;2022-12-29T03:15:34;11.30;84.20
26414;DHT22;14108;53.668;10.288;2022-12-29T03:18:25;11.30;84.20
26414;DHT22;14108;53.668;10.288;2022-12-29T03:21:02;11.30;84.90
26414;DHT22;14108;53.668;10.288;2022-12-29T03:23:32;11.30;84.40
26414;DHT22;14108;53.668;10.288;2022-12-29T03:26:04;11.30;84.30
26414;DHT22;14108;53.668;10.288;2022-12-29T03:28:37;11.30;84.30
26414;DHT22;14108;53.668;10.288;2022-12-29T03:31:07;11.30;84.50
26414;DHT22;14108;53.668;10.288;2022-12-29T03:33:36;11.30;84.40
26414;DHT22;14108;53.668;10.288;2022-12-29T03:36:08;11.30;84.20
26414;DHT22;14108;53.668;10.288;2022-12-29T03:38:42;11.40;84.20
26414;DHT22;14108;53.668;10.288;2022-12-29T03:41:14;11.30;84.20
26414;DHT22;14108;53.668;10.288;2022-12-29T03:43:42;11.40;84.30
26414;DHT22;14108;53.668;10.288;2022-12-29T03:46:09;11.40;84.20
26414;DHT22;14108;53.668;10.288;2022-12-29T03:48:36;11.40;84.30
26414;DHT22;14108;53.668;10.288;2022-12-29T03:51:04;11.30;84.30
26414;DHT22;14108;53.668;10.288;2022-12-29T03:53:31;11.30;84.40
26414;DHT22;14108;53.668;10.288;2022-12-29T03:55:58;11.40;84.60
26414;DHT22;14108;53.668;10.288;2022-12-29T03:58:26;11.40;84.40
26414;DHT22;14108;53.668;10.288;2022-12-29T04:00:53;11.40;84.30
26414;DHT22;14108;53.668;10.288;2022-12-29T04:03:20;11.40;84.40
26414;DHT22;14108;53.668;10.288;2022-12-29T04:05:47;11.40;84.10
26414;DHT22;14108;53.668;10.288;2022-12-29T04:08:14;11.40;83.50
26414;DHT22;14108;53.668;10.288;2022-12-29T04:10:41;11.40;83.90
26414;DHT22;14108;53.668;10.288;2022-12-29T04:13:08;11.50;83.80
26414;DHT22;14108;53.668;10.288;2022-12-29T04:15:35;11.50;84.20
26414;DHT22;14108;53.668;10.288;2022-12-29T04:18:03;11.50;83.90
26414;DHT22;14108;53.668;10.288;2022-12-29T04:20:30;11.50;83.80
26414;DHT22;14108;53.668;10.288;2022-12-29T04:23:15;11.50;83.80
26414;DHT22;14108;53.668;10.288;2022-12-29T04:25:45;11.50;83.70
26414;DHT22;14108;53.668;10.288;2022-12-29T04:28:13;11.50;83.40
26414;DHT22;14108;53.668;10.288;2022-12-29T04:30:40;11.40;83.40
26414;DHT22;14108;53.668;10.288;2022-12-29T04:35:44;11.40;83.70
26414;DHT22;14108;53.668;10.288;2022-12-29T04:38:11;11.40;83.90
26414;DHT22;14108;53.668;10.288;2022-12-29T04:40:39;11.40;83.90
26414;DHT22;14108;53.668;10.288;2022-12-29T04:43:07;11.40;83.90
26414;DHT22;14108;53.668;10.288;2022-12-29T04:45:34;11.40;83.70
26414;DHT22;14108;53.668;10.288;2022-12-29T04:48:01;11.40;83.70
26414;DHT22;14108;53.668;10.288;2022-12-29T04:50:29;11.40;83.70
26414;DHT22;14108;53.668;10.288;2022-12-29T04:52:56;11.40;83.70
26414;DHT22;14108;53.668;10.288;2022-12-29T04:55:23;11.40;84.20
26414;DHT22;14108;53.668;10.288;2022-12-29T04:57:50;11.40;83.90
26414;DHT22;14108;53.668;10.288;2022-12-29T05:00:18;11.40;83.90
26414;DHT22;14108;53.668;10.288;2022-12-29T05:02:45;11.40;84.00
26414;DHT22;14108;53.668;10.288;2022-12-29T05:05:12;11.50;84.10
26414;DHT22;14108;53.668;10.288;2022-12-29T05:07:39;11.40;84.00
26414;DHT22;14108;53.668;10.288;2022-12-29T05:10:09;11.50;83.70
26414;DHT22;14108;53.668;10.288;2022-12-29T05:12:37;11.50;83.90
26414;DHT22;14108;53.668;10.288;2022-12-29T05:15:07;11.50;84.00
26414;DHT22;14108;53.668;10.288;2022-12-29T05:17:34;11.50;84.20
26414;DHT22;14108;53.668;10.288;2022-12-29T05:20:02;11.50;84.20
26414;DHT22;14108;53.668;10.288;2022-12-29T05:22:29;11.50;84.10
26414;DHT22;14108;53.668;10.288;2022-12-29T05:24:56;11.60;84.10
26414;DHT22;14108;53.668;10.288;2022-12-29T05:27:23;11.60;84.20
26414;DHT22;14108;53.668;10.288;2022-12-29T05:29:50;11.60;84.30
26414;DHT22;14108;53.668;10.288;2022-12-29T05:32:17;11.60;84.40
26414;DHT22;14108;53.668;10.288;2022-12-29T05:34:44;11.60;84.50
26414;DHT22;14108;53.668;10.288;2022-12-29T05:37:12;11.60;84.60
26414;DHT22;14108;53.668;10.288;2022-12-29T05:39:39;11.60;84.60
26414;DHT22;14108;53.668;10.288;2022-12-29T05:42:06;11.60;84.70
26414;DHT22;14108;53.668;10.288;2022-12-29T05:44:33;11.70;84.60
26414;DHT22;14108;53.668;10.288;2022-12-29T05:47:00;11.70;84.40
26414;DHT22;14108;53.668;10.288;2022-12-29T05:49:27;11.70;84.70
26414;DHT22;14108;53.668;10.288;2022-12-29T05:51:54;11.70;85.00
26414;DHT22;14108;53.668;10.288;2022-12-29T05:54:22;11.60;85.00
26414;DHT22;14108;53.668;10.288;2022-12-29T05:56:49;11.70;85.10
26414;DHT22;14108;53.668;10.288;2022-12-29T05:59:16;11.70;85.10
26414;DHT22;14108;53.668;10.288;2022-12-29T06:01:43;11.70;85.20
26414;DHT22;14108;53.668;10.288;2022-12-29T06:04:10;11.70;85.10
26414;DHT22;14108;53.668;10.288;2022-12-29T06:06:38;11.60;85.30
26414;DHT22;14108;53.668;10.288;2022-12-29T06:09:06;11.60;85.40
26414;DHT22;14108;53.668;10.288;2022-12-29T06:11:33;11.60;85.40
26414;DHT22;14108;53.668;10.288;2022-12-29T06:14:00;11.70;85.40
26414;DHT22;14108;53.668;10.288;2022-12-29T06:16:27;11.60;85.20
26414;DHT22;14108;53.668;10.288;2022-12-29T06:18:54;11.70;85.00
26414;DHT22;14108;53.668;10.288;2022-12-29T06:21:21;11.60;84.80
26414;DHT22;14108;53.668;10.288;2022-12-29T06:23:49;11.70;84.90
26414;DHT22;14108;53.668;10.288;2022-12-29T06:26:16;11.70;85.10
26414;DHT22;14108;53.668;10.288;2022-12-29T06:28:43;11.70;85.10
26414;DHT22;14108;53.668;10.288;2022-12-29T06:31:10;11.70;85.10
26414;DHT22;14108;53.668;10.288;2022-12-29T06:33:38;11.70;85.10
26414;DHT22;14108;53.668;10.288;2022-12-29T06:36:07;11.80;85.00
26414;DHT22;14108;53.668;10.288;2022-12-29T06:38:34;11.80;84.90
26414;DHT22;14108;53.668;10.288;2022-12-29T06:41:02;11.80;85.00
26414;DHT22;14108;53.668;10.288;2022-12-29T06:43:29;11.80;85.00
26414;DHT22;14108;53.668;10.288;2022-12-29T06:45:57;11.80;84.80
26414;DHT22;14108;53.668;10.288;2022-12-29T06:48:24;11.80;84.70
26414;DHT22;14108;53.668;10.288;2022-12-29T06:50:52;11.80;84.60
26414;DHT22;14108;53.668;10.288;2022-12-29T06:53:19;11.80;84.50
26414;DHT22;14108;53.668;10.288;2022-12-29T06:55:46;11.80;84.20
26414;DHT22;14108;53.668;10.288;2022-12-29T06:58:13;11.80;84.30
26414;DHT22;14108;53.668;10.288;2022-12-29T07:00:40;11.80;84.60
26414;DHT22;14108;53.668;10.288;2022-12-29T07:03:07;11.80;84.60
26414;DHT22;14108;53.668;10.288;2022-12-29T07:05:34;11.80;84.30
26414;DHT22;14108;53.668;10.288;2022-12-29T07:08:01;11.80;85.00
26414;DHT22;14108;53.668;10.288;2022-12-29T07:10:29;11.80;84.40
26414;DHT22;14108;53.668;10.288;2022-12-29T07:12:56;11.80;84.40
26414;DHT22;14108;53.668;10.288;2022-12-29T07:15:23;11.80;84.20
26414;DHT22;14108;53.668;10.288;2022-12-29T07:17:50;11.80;84.20
26414;DHT22;14108;53.668;10.288;2022-12-29T07:20:18;11.80;84.10
26414;DHT22;14108;53.668;10.288;2022-12-29T07:22:45;11.80;83.90
26414;DHT22;14108;53.668;10.288;2022-12-29T07:25:14;11.80;83.90
26414;DHT22;14108;53.668;10.288;2022-12-29T07:27:41;11.80;83.90
26414;DHT22;14108;53.668;10.288;2022-12-29T07:30:11;11.80;84.20
26414;DHT22;14108;53.668;10.288;2022-12-29T07:32:38;11.80;84.30
26414;DHT22;14108;53.668;10.288;2022-12-29T07:35:07;11.80;84.40
26414;DHT22;14108;53.668;10.288;2022-12-29T07:37:34;11.80;84.50
26414;DHT22;14108;53.668;10.288;2022-12-29T07:40:02;11.80;84.50
26414;DHT22;14108;53.668;10.288;2022-12-29T07:42:29;11.80;84.40
26414;DHT22;14108;53.668;10.288;2022-12-29T07:44:57;11.80;84.40
26414;DHT22;14108;53.668;10.288;2022-12-29T07:47:24;11.90;84.40
26414;DHT22;14108;53.668;10.288;2022-12-29T07:49:51;11.90;84.20
26414;DHT22;14108;53.668;10.288;2022-12-29T07:52:18;11.90;84.20
26414;DHT22;14108;53.668;10.288;2022-12-29T07:54:45;11.90;84.20
26414;DHT22;14108;53.668;10.288;2022-12-29T07:57:12;11.90;84.80
26414;DHT22;14108;53.668;10.288;2022-12-29T07:59:40;11.90;84.30
26414;DHT22;14108;53.668;10.288;2022-12-29T08:02:10;11.90;84.30
26414;DHT22;14108;53.668;10.288;2022-12-29T08:04:38;11.90;84.40
26414;DHT22;14108;53.668;10.288;2022-12-29T08:07:05;11.90;84.40
26414;DHT22;14108;53.668;10.288;2022-12-29T08:09:32;11.90;84.30
26414;DHT22;14108;53.668;10.288;2022-12-29T08:11:59;11.90;84.40
26414;DHT22;14108;53.668;10.288;2022-12-29T08:14:26;11.90;84.40
26414;DHT22;14108;53.668;10.288;2022-12-29T08:16:53;11.90;84.40
26414;DHT22;14108;53.668;10.288;2022-12-29T08:19:20;11.80;84.50
26414;DHT22;14108;53.668;10.288;2022-12-29T08:21:48;11.90;84.20
26414;DHT22;14108;53.668;10.288;2022-12-29T08:24:15;11.90;84.40
26414;DHT22;14108;53.668;10.288;2022-12-29T08:26:42;11.90;83.60
26414;DHT22;14108;53.668;10.288;2022-12-29T08:29:09;11.90;83.50
26414;DHT22;14108;53.668;10.288;2022-12-29T08:31:36;11.90;83.30
26414;DHT22;14108;53.668;10.288;2022-12-29T08:34:04;11.90;83.30
26414;DHT22;14108;53.668;10.288;2022-12-29T08:36:32;11.90;83.30
26414;DHT22;14108;53.668;10.288;2022-12-29T08:38:59;11.80;83.20
26414;DHT22;14108;53.668;10.288;2022-12-29T08:41:26;11.80;83.30
26414;DHT22;14108;53.668;10.288;2022-12-29T08:43:53;11.80;83.60
26414;DHT22;14108;53.668;10.288;2022-12-29T08:46:20;11.80;83.80
26414;DHT22;14108;53.668;10.288;2022-12-29T08:51:24;11.80;84.00
26414;DHT22;14108;53.668;10.288;2022-12-29T08:53:51;11.80;84.00
26414;DHT22;14108;53.668;10.288;2022-12-29T08:56:19;11.80;83.90
26414;DHT22;14108;53.668;10.288;2022-12-29T08:58:46;11.80;83.70
26414;DHT22;14108;53.668;10.288;2022-12-29T09:01:13;11.80;83.80
26414;DHT22;14108;53.668;10.288;2022-12-29T09:03:40;11.90;83.80
26414;DHT22;14108;53.668;10.288;2022-12-29T09:06:08;11.80;84.00
26414;DHT22;14108;53.668;10.288;2022-12-29T09:08:35;11.90;83.90
26414;DHT22;14108;53.668;10.288;2022-12-29T09:11:10;11.80;83.90
26414;DHT22;14108;53.668;10.288;2022-12-29T09:13:37;11.80;84.10
26414;DHT22;14108;53.668;10.288;2022-12-29T09:16:05;11.80;83.90
26414;DHT22;14108;53.668;10.288;2022-12-29T09:18:32;11.90;83.80
26414;DHT22;14108;53.668;10.288;2022-12-29T09:21:01;11.90;83.50
26414;DHT22;14108;53.668;10.288;2022-12-29T09:23:28;11.90;83.80
26414;DHT22;14108;53.668;10.288;2022-12-29T09:25:55;11.90;83.50
26414;DHT22;14108;53.668;10.288;2022-12-29T09:28:23;12.00;83.30
26414;DHT22;14108;53.668;10.288;2022-12-29T09:30:51;12.00;83.20
26414;DHT22;14108;53.668;10.288;2022-12-29T09:33:18;12.00;83.30
26414;DHT22;14108;53.668;10.288;2022-12-29T09:35:50;12.00;83.20
26414;DHT22;14108;53.668;10.288;2022-12-29T09:38:18;12.00;83.00
26414;DHT22;14108;53.668;10.288;2022-12-29T09:40:50;12.10;82.50
26414;DHT22;14108;53.668;10.288;2022-12-29T09:43:29;12.00;82.30
26414;DHT22;14108;53.668;10.288;2022-12-29T09:46:07;12.10;82.30
26414;DHT22;14108;53.668;10.288;2022-12-29T09:48:39;12.10;82.20
26414;DHT22;14108;53.668;10.288;2022-12-29T09:51:12;12.10;81.50
26414;DHT22;14108;53.668;10.288;2022-12-29T09:53:42;12.20;81.70
26414;DHT22;14108;53.668;10.288;2022-12-29T09:56:15;12.20;81.30
26414;DHT22;14108;53.668;10.288;2022-12-29T09:58:47;12.10;80.90
26414;DHT22;14108;53.668;10.288;2022-12-29T10:01:26;12.10;80.80
26414;DHT22;14108;53.668;10.288;2022-12-29T10:03:57;12.10;80.60
26414;DHT22;14108;53.668;10.288;2022-12-29T10:06:28;12.20;80.50
26414;DHT22;14108;53.668;10.288;2022-12-29T10:09:06;12.10;80.10
26414;DHT22;14108;53.668;10.288;2022-12-29T10:11:52;12.20;80.20
26414;DHT22;14108;53.668;10.288;2022-12-29T10:14:32;12.20;80.20
26414;DHT22;14108;53.668;10.288;2022-12-29T10:17:03;12.20;79.90
26414;DHT22;14108;53.668;10.288;2022-12-29T10:19:51;12.30;79.80
26414;DHT22;14108;53.668;10.288;2022-12-29T10:22:32;12.30;79.50
26414;DHT22;14108;53.668;10.288;2022-12-29T10:25:02;12.30;79.00
26414;DHT22;14108;53.668;10.288;2022-12-29T10:30:13;12.30;78.00
26414;DHT22;14108;53.668;10.288;2022-12-29T10:32:45;12.30;78.10
26414;DHT22;14108;53.668;10.288;2022-12-29T10:35:17;12.30;77.60
26414;DHT22;14108;53.668;10.288;2022-12-29T10:37:50;12.30;77.40
26414;DHT22;14108;53.668;10.288;2022-12-29T10:40:24;12.30;76.90
26414;DHT22;14108;53.668;10.288;2022-12-29T10:42:53;12.30;76.80
26414;DHT22;14108;53.668;10.288;2022-12-29T10:45:22;12.30;77.00
26414;DHT22;14108;53.668;10.288;2022-12-29T10:47:57;12.30;76.40
26414;DHT22;14108;53.668;10.288;2022-12-29T10:50:27;12.20;76.50
26414;DHT22;14108;53.668;10.288;2022-12-29T10:55:33;12.10;76.50
26414;DHT22;14108;53.668;10.288;2022-12-29T10:58:05;12.00;76.80
26414;DHT22;14108;53.668;10.288;2022-12-29T11:00:33;12.10;76.40
26414;DHT22;14108;53.668;10.288;2022-12-29T11:03:17;12.20;75.70
26414;DHT22;14108;53.668;10.288;2022-12-29T11:05:54;12.20;75.70
26414;DHT22;14108;53.668;10.288;2022-12-29T11:08:25;12.20;75.60
26414;DHT22;14108;53.668;10.288;2022-12-29T11:10:59;12.20;75.70
26414;DHT22;14108;53.668;10.288;2022-12-29T11:13:29;12.10;75.40
26414;DHT22;14108;53.668;10.288;2022-12-29T11:15:56;12.10;75.50
26414;DHT22;14108;53.668;10.288;2022-12-29T11:18:25;12.10;75.40
26414;DHT22;14108;53.668;10.288;2022-12-29T11:20:55;12.10;75.20
26414;DHT22;14108;53.668;10.288;2022-12-29T11:23:26;12.10;75.40
26414;DHT22;14108;53.668;10.288;2022-12-29T11:28:47;12.10;75.50
26414;DHT22;14108;53.668;10.288;2022-12-29T11:31:21;12.10;75.00
26414;DHT22;14108;53.668;10.288;2022-12-29T11:33:48;12.10;74.90
26414;DHT22;14108;53.668;10.288;2022-12-29T11:36:19;12.10;75.30
26414;DHT22;14108;53.668;10.288;2022-12-29T11:38:49;12.10;75.50
26414;DHT22;14108;53.668;10.288;2022-12-29T11:41:22;12.10;75.60
26414;DHT22;14108;53.668;10.288;2022-12-29T11:46:29;12.20;75.40
26414;DHT22;14108;53.668;10.288;2022-12-29T11:48:58;12.20;75.00
26414;DHT22;14108;53.668;10.288;2022-12-29T11:51:29;12.20;75.00
26414;DHT22;14108;53.668;10.288;2022-12-29T11:53:59;12.20;74.80
26414;DHT22;14108;53.668;10.288;2022-12-29T11:56:35;12.30;74.10
26414;DHT22;14108;53.668;10.288;2022-12-29T11:59:25;12.30;74.00
26414;DHT22;14108;53.668;10.288;2022-12-29T12:02:08;12.30;73.70
26414;DHT22;14108;53.668;10.288;2022-12-29T12:04:38;12.30;73.20
26414;DHT22;14108;53.668;10.288;2022-12-29T12:09:51;12.30;73.30
26414;DHT22;14108;53.668;10.288;2022-12-29T12:12:27;12.30;73.10
26414;DHT22;14108;53.668;10.288;2022-12-29T12:14:57;12.40;73.20
26414;DHT22;14108;53.668;10.288;2022-12-29T12:17:30;12.40;73.20
26414;DHT22;14108;53.668;10.288;2022-12-29T12:20:15;12.40;73.00
26414;DHT22;14108;53.668;10.288;2022-12-29T12:22:46;12.40;73.00
26414;DHT22;14108;53.668;10.288;2022-12-29T12:25:20;12.40;72.70
26414;DHT22;14108;53.668;10.288;2022-12-29T12:27:50;12.40;72.70
26414;DHT22;14108;53.668;10.288;2022-12-29T12:30:20;12.40;72.90
26414;DHT22;14108;53.668;10.288;2022-12-29T12:32:53;12.40;72.80
26414;DHT22;14108;53.668;10.288;2022-12-29T12:35:26;12.40;72.70
26414;DHT22;14108;53.668;10.288;2022-12-29T12:38:17;12.40;72.70
26414;DHT22;14108;53.668;10.288;2022-12-29T12:41:11;12.40;72.80
26414;DHT22;14108;53.668;10.288;2022-12-29T12:43:41;12.40;72.90
26414;DHT22;14108;53.668;10.288;2022-12-29T12:46:24;12.50;73.00
26414;DHT22;14108;53.668;10.288;2022-12-29T12:52:07;12.40;73.00
26414;DHT22;14108;53.668;10.288;2022-12-29T12:57:20;12.40;73.00
26414;DHT22;14108;53.668;10.288;2022-12-29T12:59:55;12.40;73.20
26414;DHT22;14108;53.668;10.288;2022-12-29T13:02:37;12.40;73.20
26414;DHT22;14108;53.668;10.288;2022-12-29T13:05:21;12.40;73.40
26414;DHT22;14108;53.668;10.288;2022-12-29T13:07:52;12.40;73.50
26414;DHT22;14108;53.668;10.288;2022-12-29T13:10:27;12.50;73.90
26414;DHT22;14108;53.668;10.288;2022-12-29T13:13:18;12.50;73.00
26414;DHT22;14108;53.668;10.288;2022-12-29T13:15:56;12.40;73.20
26414;DHT22;14108;53.668;10.288;2022-12-29T13:18:32;12.40;73.40
26414;DHT22;14108;53.668;10.288;2022-12-29T13:21:09;12.40;73.60
26414;DHT22;14108;53.668;10.288;2022-12-29T13:23:42;12.40;73.40
26414;DHT22;14108;53.668;10.288;2022-12-29T13:26:17;12.40;73.40
26414;DHT22;14108;53.668;10.288;2022-12-29T13:28:52;12.40;73.00
26414;DHT22;14108;53.668;10.288;2022-12-29T13:31:30;12.40;73.20
26414;DHT22;14108;53.668;10.288;2022-12-29T13:36:43;12.50;73.20
26414;DHT22;14108;53.668;10.288;2022-12-29T13:39:15;12.40;73.20
26414;DHT22;14108;53.668;10.288;2022-12-29T13:41:45;12.40;74.10
26414;DHT22;14108;53.668;10.288;2022-12-29T13:44:20;12.40;73.50
26414;DHT22;14108;53.668;10.288;2022-12-29T13:46:50;12.40;74.20
26414;DHT22;14108;53.668;10.288;2022-12-29T13:49:19;12.30;74.90
26414;DHT22;14108;53.668;10.288;2022-12-29T13:51:49;12.30;75.30
26414;DHT22;14108;53.668;10.288;2022-12-29T13:54:27;12.20;75.80
26414;DHT22;14108;53.668;10.288;2022-12-29T13:57:02;12.20;76.20
26414;DHT22;14108;53.668;10.288;2022-12-29T13:59:40;12.20;77.30
26414;DHT22;14108;53.668;10.288;2022-12-29T14:02:19;12.20;76.70
26414;DHT22;14108;53.668;10.288;2022-12-29T14:04:59;12.20;76.80
26414;DHT22;14108;53.668;10.288;2022-12-29T14:07:28;12.20;76.90
26414;DHT22;14108;53.668;10.288;2022-12-29T14:09:56;12.10;76.90
26414;DHT22;14108;53.668;10.288;2022-12-29T14:12:35;12.20;77.20
26414;DHT22;14108;53.668;10.288;2022-12-29T14:15:06;12.10;77.30
26414;DHT22;14108;53.668;10.288;2022-12-29T14:17:41;12.10;77.40
26414;DHT22;14108;53.668;10.288;2022-12-29T14:20:18;12.10;77.60
26414;DHT22;14108;53.668;10.288;2022-12-29T14:22:57;12.00;77.90
26414;DHT22;14108;53.668;10.288;2022-12-29T14:25:54;12.00;78.20
26414;DHT22;14108;53.668;10.288;2022-12-29T14:28:24;11.90;76.90
26414;DHT22;14108;53.668;10.288;2022-12-29T14:30:53;11.80;76.30
26414;DHT22;14108;53.668;10.288;2022-12-29T14:33:22;11.60;76.30
26414;DHT22;14108;53.668;10.288;2022-12-29T14:35:50;11.60;76.40
26414;DHT22;14108;53.668;10.288;2022-12-29T14:38:24;11.50;76.20
26414;DHT22;14108;53.668;10.288;2022-12-29T14:40:52;11.50;76.30
26414;DHT22;14108;53.668;10.288;2022-12-29T14:43:53;11.40;76.20
26414;DHT22;14108;53.668;10.288;2022-12-29T14:46:21;11.30;76.40
26414;DHT22;14108;53.668;10.288;2022-12-29T14:48:55;11.30;76.70
26414;DHT22;14108;53.668;10.288;2022-12-29T14:51:33;11.20;76.80
26414;DHT22;14108;53.668;10.288;2022-12-29T14:59:44;11.10;77.20
26414;DHT22;14108;53.668;10.288;2022-12-29T15:02:17;10.80;79.40
26414;DHT22;14108;53.668;10.288;2022-12-29T15:04:47;11.00;78.70
26414;DHT22;14108;53.668;10.288;2022-12-29T15:07:15;11.00;78.00
26414;DHT22;14108;53.668;10.288;2022-12-29T15:09:46;11.00;77.70
26414;DHT22;14108;53.668;10.288;2022-12-29T15:12:21;11.00;77.30
26414;DHT22;14108;53.668;10.288;2022-12-29T15:17:29;10.90;77.30
26414;DHT22;14108;53.668;10.288;2022-12-29T15:19:59;10.80;77.40
26414;DHT22;14108;53.668;10.288;2022-12-29T15:22:26;10.80;77.70
26414;DHT22;14108;53.668;10.288;2022-12-29T15:24:55;10.80;77.80
26414;DHT22;14108;53.668;10.288;2022-12-29T15:27:23;10.70;78.60
26414;DHT22;14108;53.668;10.288;2022-12-29T15:29:57;10.80;77.80
26414;DHT22;14108;53.668;10.288;2022-12-29T15:32:26;10.70;77.90
26414;DHT22;14108;53.668;10.288;2022-12-29T15:34:55;10.70;77.80
26414;DHT22;14108;53.668;10.288;2022-12-29T15:37:28;10.80;77.90
26414;DHT22;14108;53.668;10.288;2022-12-29T15:39:56;10.70;77.90
26414;DHT22;14108;53.668;10.288;2022-12-29T15:42:31;10.70;78.10
26414;DHT22;14108;53.668;10.288;2022-12-29T15:45:00;10.60;78.40
26414;DHT22;14108;53.668;10.288;2022-12-29T15:47:30;10.60;78.70
26414;DHT22;14108;53.668;10.288;2022-12-29T15:50:03;10.60;79.00
26414;DHT22;14108;53.668;10.288;2022-12-29T15:52:32;10.60;79.40
26414;DHT22;14108;53.668;10.288;2022-12-29T15:55:01;10.60;79.80
26414;DHT22;14108;53.668;10.288;2022-12-29T15:57:30;10.60;79.90
26414;DHT22;14108;53.668;10.288;2022-12-29T15:59:59;10.60;80.00
26414;DHT22;14108;53.668;10.288;2022-12-29T16:02:28;10.60;80.10
26414;DHT22;14108;53.668;10.288;2022-12-29T16:04:56;10.60;80.10
26414;DHT22;14108;53.668;10.288;2022-12-29T16:07:27;10.60;80.00
26414;DHT22;14108;53.668;10.288;2022-12-29T16:09:56;10.60;80.10
26414;DHT22;14108;53.668;10.288;2022-12-29T16:12:26;10.60;80.00
26414;DHT22;14108;53.668;10.288;2022-12-29T16:14:55;10.60;80.00
26414;DHT22;14108;53.668;10.288;2022-12-29T16:17:24;10.60;80.10
26414;DHT22;14108;53.668;10.288;2022-12-29T16:19:56;10.60;80.30
26414;DHT22;14108;53.668;10.288;2022-12-29T16:22:27;10.60;80.20
26414;DHT22;14108;53.668;10.288;2022-12-29T16:24:59;10.60;80.10